No particular awareness of the weather is required.    There are no Weather-warnings


Meteo18 Weather Cam more information Meteo18 Weather Cam


Thunder radar more information blitzortung!


Rain radar more information rain snow radar


Visit our other weather sites:

Template documentation
and downloads

And another site



Weather Underground History page Text

Daily Summary for December 8, 2017 Units:  English    Metric   Both
« Previous Day
Next Day »
Daily Weekly Monthly Yearly Custom
  High: Low: Average:
Temperature: 45.9 °F 33.4 °F 39.2 °F
Dew Point: 45 °F 31.1 °F 36 °F
Humidity: 97 % 70 % 89 %
Wind Speed: 25 mph 0 mph 6 mph
Wind Gust: 33 mph - -
Wind:- - WNW
Pressure: 30.2 in 30 in -
Precipitation: 0.05 in    
Historical Graphs
 
 
Tabular Data for December 8, 2017
Time Temperature Dew Point Pressure Wind Wind Speed Wind Gust Humidity Rainfall Rate (Hourly)
00:02 44.4 °F 43.7 °F 30 in WSW 6 mph 12 mph 97 % 0.03 in
00:12 44.8 °F 44.1 °F 30 in WSW 9 mph 13 mph 97 % 0.04 in
00:17 45 °F 44.2 °F 30 in WSW 11 mph 15 mph 97 % 0.04 in
00:42 45.5 °F 44.8 °F 30 in WSW 4 mph 16 mph 97 % 0.04 in
00:52 45.5 °F 44.8 °F 30 in West 6 mph 13 mph 97 % 0.03 in
00:57 45.5 °F 44.8 °F 30 in West 5 mph 11 mph 97 % 0.03 in
01:02 45.5 °F 44.8 °F 30 in West 4 mph 13 mph 97 % 0.02 in
01:07 45.7 °F 45 °F 30 in West 6 mph 13 mph 97 % 0.01 in
01:17 45.7 °F 45 °F 30 in West 7 mph 12 mph 97 % 0.01 in
01:22 45.7 °F 44.6 °F 30 in West 2 mph 12 mph 96 % 0 in
01:27 45.9 °F 44.8 °F 30 in NNW 9 mph 12 mph 96 % 0 in
01:47 45.3 °F 44.1 °F 30 in NNW 3 mph 7 mph 95 % 0 in
01:57 45 °F 43 °F 30.1 in WNW 4 mph 10 mph 93 % 0 in
02:02 44.8 °F 42.8 °F 30.1 in NNW 6 mph 12 mph 93 % 0 in
02:07 44.6 °F 42.6 °F 30.1 in North 5 mph 12 mph 93 % 0 in
02:12 44.4 °F 42.3 °F 30.1 in NNW 3 mph 11 mph 92 % 0 in
02:22 44.4 °F 42.3 °F 30.1 in West 1 mph 7 mph 92 % 0 in
02:27 44.2 °F 42.1 °F 30.1 in WNW 2 mph 7 mph 92 % 0 in
02:42 44.2 °F 42.1 °F 30.1 in Calm   4 mph 92 % 0 in
02:47 44.1 °F 41.9 °F 30.1 in Calm   5 mph 92 % 0 in
03:02 44.1 °F 41.5 °F 30.1 in WNW 2 mph 4 mph 91 % 0 in
03:17 43.7 °F 41.2 °F 30.1 in WNW 2 mph 7 mph 91 % 0 in
03:22 43.5 °F 41 °F 30.1 in WNW 3 mph 7 mph 91 % 0 in
03:27 43.3 °F 41.2 °F 30.1 in WNW 3 mph 7 mph 92 % 0 in
03:32 43.2 °F 41 °F 30.1 in WNW 2 mph 7 mph 92 % 0 in
03:42 42.8 °F 40.6 °F 30.1 in WNW 3 mph 8 mph 92 % 0 in
04:02 41.9 °F 39.7 °F 30.1 in WNW 3 mph 8 mph 92 % 0 in
04:07 41.9 °F 39.7 °F 30.1 in WNW 5 mph 8 mph 92 % 0 in
04:17 41.7 °F 39.6 °F 30.1 in WNW 2 mph 9 mph 92 % 0 in
04:22 41.7 °F 39.6 °F 30.1 in NW 4 mph 8 mph 92 % 0 in
04:27 41.5 °F 39.4 °F 30.1 in West 2 mph 7 mph 92 % 0 in
04:37 41.5 °F 39.4 °F 30.1 in WNW 8 mph 8 mph 92 % 0 in
04:42 41.5 °F 39.4 °F 30.1 in West 3 mph 9 mph 92 % 0 in
04:52 41.2 °F 39 °F 30.1 in WNW 2 mph 9 mph 92 % 0 in
04:57 41.2 °F 39 °F 30.1 in WSW 2 mph 6 mph 92 % 0 in
05:02 41 °F 38.7 °F 30.1 in WNW 3 mph 6 mph 91 % 0 in
05:12 40.6 °F 38.3 °F 30.1 in WNW 2 mph 5 mph 91 % 0 in
05:17 40.5 °F 38.3 °F 30.1 in West 3 mph 5 mph 92 % 0 in
05:22 40.3 °F 38.1 °F 30.1 in Calm   5 mph 92 % 0 in
05:32 39.7 °F 37.6 °F 30.1 in West 2 mph 5 mph 92 % 0 in
05:42 39.4 °F 37.6 °F 30.1 in West 3 mph 5 mph 93 % 0 in
05:47 39.4 °F 37.6 °F 30.1 in WNW 4 mph 6 mph 93 % 0 in
05:52 39.4 °F 37.6 °F 30.1 in West 2 mph 9 mph 93 % 0 in
05:57 39.4 °F 37.6 °F 30.1 in West 2 mph 9 mph 93 % 0 in
06:12 39 °F 37.2 °F 30.1 in West 6 mph 6 mph 93 % 0 in
06:17 39 °F 37.2 °F 30.1 in WNW 1 mph 6 mph 93 % 0 in
06:32 38.8 °F 37 °F 30.1 in West 2 mph 6 mph 93 % 0 in
06:42 38.8 °F 37.2 °F 30.1 in West 4 mph 6 mph 94 % 0 in
06:47 38.8 °F 37.2 °F 30.1 in West 2 mph 6 mph 94 % 0 in
06:57 39 °F 37.4 °F 30.1 in West 3 mph 7 mph 94 % 0 in
07:02 39 °F 37.4 °F 30.1 in West 4 mph 9 mph 94 % 0 in
07:12 39.4 °F 37.6 °F 30.1 in West 3 mph 8 mph 93 % 0 in
07:17 39.4 °F 37.6 °F 30.1 in West 6 mph 8 mph 93 % 0 in
07:27 39.4 °F 37.6 °F 30.1 in West 6 mph 9 mph 93 % 0 in
07:37 39.7 °F 37.6 °F 30.1 in West 6 mph 13 mph 92 % 0 in
07:42 39.7 °F 37.4 °F 30.1 in West 3 mph 13 mph 91 % 0 in
07:47 39.7 °F 37.4 °F 30.1 in West 4 mph 13 mph 91 % 0 in
07:57 39.7 °F 36.7 °F 30.1 in West 8 mph 9 mph 89 % 0 in
08:07 39.6 °F 36.9 °F 30.1 in West 5 mph 12 mph 90 % 0 in
08:12 39.4 °F 37 °F 30.1 in WSW 10 mph 12 mph 91 % 0 in
08:27 39.6 °F 37.4 °F 30.1 in West 10 mph 13 mph 92 % 0 in
08:32 39.7 °F 37.6 °F 30.1 in West 11 mph 13 mph 92 % 0 in
08:37 39.9 °F 37.8 °F 30.1 in West 8 mph 14 mph 92 % 0 in
08:47 39.9 °F 37.6 °F 30.1 in West 8 mph 14 mph 91 % 0 in
08:52 39.7 °F 37.6 °F 30.1 in WSW 4 mph 12 mph 92 % 0 in
08:57 39.6 °F 37.4 °F 30.1 in West 5 mph 12 mph 92 % 0 in
09:02 39.6 °F 37.4 °F 30.1 in WSW 4 mph 12 mph 92 % 0 in
09:12 39 °F 36.9 °F 30.1 in West 3 mph 11 mph 92 % 0 in
09:17 39 °F 37.2 °F 30.1 in WSW 3 mph 9 mph 93 % 0 in
09:32 39.7 °F 37.4 °F 30.1 in WNW 7 mph 10 mph 91 % 0 in
09:42 40.5 °F 38.1 °F 30.1 in WNW 6 mph 14 mph 91 % 0 in
09:47 40.8 °F 38.1 °F 30.1 in WNW 11 mph 17 mph 90 % 0 in
09:52 41 °F 38.3 °F 30.1 in WNW 4 mph 20 mph 90 % 0 in
09:57 40.8 °F 38.1 °F 30.1 in West 7 mph 20 mph 90 % 0 in
10:02 40.6 °F 37.9 °F 30.1 in WNW 12 mph 20 mph 90 % 0 in
10:12 40.3 °F 37.9 °F 30.1 in West 6 mph 18 mph 91 % 0 in
10:17 40.1 °F 37.4 °F 30.1 in West 5 mph 16 mph 90 % 0.01 in
10:27 40.1 °F 37.4 °F 30.1 in West 6 mph 14 mph 90 % 0.01 in
10:32 40.1 °F 37 °F 30.1 in West 8 mph 14 mph 89 % 0.01 in
10:42 40.5 °F 37.2 °F 30.1 in West 6 mph 11 mph 88 % 0.01 in
10:47 40.5 °F 37.4 °F 30.1 in West 4 mph 11 mph 89 % 0.01 in
10:57 41 °F 37.9 °F 30.2 in West 7 mph 10 mph 89 % 0.01 in
11:12 41.5 °F 38.3 °F 30.2 in West 4 mph 12 mph 88 % 0 in
11:27 41.7 °F 38.1 °F 30.2 in West 6 mph 18 mph 87 % 0 in
11:32 41.7 °F 37.8 °F 30.2 in West 9 mph 18 mph 86 % 0 in
11:42 42.1 °F 37.6 °F 30.2 in WNW 5 mph 13 mph 84 % 0 in
11:47 42.3 °F 38.3 °F 30.2 in West 9 mph 13 mph 86 % 0 in
11:57 42.3 °F 37.8 °F 30.2 in WNW 4 mph 15 mph 84 % 0 in
12:02 42.3 °F 37.4 °F 30.2 in SW 6 mph 15 mph 83 % 0 in
12:12 42.3 °F 37.4 °F 30.2 in WSW 9 mph 17 mph 83 % 0 in
12:17 42.3 °F 37.4 °F 30.2 in West 8 mph 17 mph 83 % 0 in
12:22 42.1 °F 37 °F 30.2 in WSW 11 mph 17 mph 82 % 0 in
12:32 42.3 °F 36.5 °F 30.1 in West 9 mph 17 mph 80 % 0 in
12:42 42.4 °F 36.7 °F 30.1 in West 11 mph 18 mph 80 % 0 in
12:47 42.4 °F 37 °F 30.1 in WSW 7 mph 18 mph 81 % 0 in
13:02 42.3 °F 36.9 °F 30.1 in West 5 mph 18 mph 81 % 0 in
13:07 42.4 °F 36.7 °F 30.1 in WNW 10 mph 18 mph 80 % 0 in
13:12 42.4 °F 36.3 °F 30.1 in WNW 9 mph 18 mph 79 % 0 in
13:17 42.6 °F 36 °F 30.1 in NW 13 mph 18 mph 77 % 0 in
13:22 42.4 °F 36.1 °F 30.1 in West 12 mph 18 mph 78 % 0 in
13:27 42.6 °F 36.3 °F 30.1 in West 9 mph 18 mph 78 % 0 in
13:37 42.8 °F 35.4 °F 30.1 in West 10 mph 19 mph 75 % 0 in
13:52 42.4 °F 34 °F 30.1 in West 11 mph 22 mph 72 % 0 in
13:57 42.3 °F 33.8 °F 30.1 in West 7 mph 22 mph 72 % 0 in
14:02 42.1 °F 33.8 °F 30.1 in NW 14 mph 22 mph 72 % 0 in
14:12 42.1 °F 34 °F 30.1 in WSW 6 mph 18 mph 73 % 0 in
14:22 42.1 °F 33.4 °F 30.1 in West 17 mph 19 mph 71 % 0 in
14:27 42.1 °F 33.8 °F 30.1 in West 17 mph 19 mph 72 % 0 in
14:32 42.1 °F 33.8 °F 30.1 in NW 8 mph 19 mph 72 % 0 in
14:42 42.3 °F 33.8 °F 30.1 in West 4 mph 19 mph 72 % 0 in
14:57 42.6 °F 34.2 °F 30.1 in WSW 5 mph 17 mph 72 % 0 in
15:02 42.6 °F 34.2 °F 30.1 in WNW 5 mph 16 mph 72 % 0 in
15:12 42.3 °F 33.6 °F 30.1 in West 8 mph 16 mph 71 % 0 in
15:27 42.3 °F 33.8 °F 30.1 in WNW 10 mph 16 mph 72 % 0 in
15:32 42.4 °F 33.6 °F 30.1 in WNW 7 mph 16 mph 71 % 0 in
15:42 41.9 °F 33.3 °F 30.1 in WNW 9 mph 21 mph 71 % 0 in
15:52 41.5 °F 33.3 °F 30.1 in WNW 16 mph 21 mph 72 % 0 in
15:57 41.4 °F 32.4 °F 30.1 in WNW 25 mph 25 mph 70 % 0 in
16:02 39.9 °F 32.9 °F 30.1 in West 11 mph 33 mph 76 % 0 in
16:12 38.7 °F 32.4 °F 30.1 in West 9 mph 33 mph 78 % 0 in
16:17 38.7 °F 32.7 °F 30.1 in WNW 7 mph 25 mph 79 % 0 in
16:42 38.8 °F 33.4 °F 30.1 in WNW 5 mph 7 mph 81 % 0 in
17:02 36.1 °F 32.4 °F 30.1 in NW 10 mph 19 mph 86 % 0 in
17:07 34.5 °F 31.6 °F 30.2 in WNW 8 mph 26 mph 89 % 0 in
17:17 34 °F 32.2 °F 30.2 in NW 4 mph 26 mph 93 % 0 in
17:22 34 °F 32.2 °F 30.2 in NNW 3 mph 11 mph 93 % 0 in
17:27 34 °F 32.2 °F 30.2 in WNW 3 mph 11 mph 93 % 0 in
17:32 34 °F 32.2 °F 30.2 in WNW 4 mph 11 mph 93 % 0 in
17:42 34 °F 32.2 °F 30.2 in WNW 7 mph 12 mph 93 % 0 in
17:47 34.2 °F 32.4 °F 30.2 in WNW 4 mph 12 mph 93 % 0 in
17:57 34.3 °F 32.2 °F 30.2 in WNW 2 mph 11 mph 92 % 0 in
18:07 34.3 °F 32.2 °F 30.2 in West 6 mph 10 mph 92 % 0 in
18:12 34.5 °F 32.2 °F 30.2 in NW 4 mph 10 mph 91 % 0 in
18:17 34.7 °F 32.4 °F 30.2 in West 6 mph 9 mph 91 % 0 in
18:22 34.9 °F 32.2 °F 30.2 in West 5 mph 9 mph 90 % 0 in
18:27 34.9 °F 32.2 °F 30.2 in West 7 mph 11 mph 90 % 0 in
18:32 34.9 °F 32.2 °F 30.2 in WNW 2 mph 11 mph 90 % 0 in
18:42 34.9 °F 32.2 °F 30.2 in West 3 mph 9 mph 90 % 0 in
18:57 34.9 °F 32.5 °F 30.2 in WNW 9 mph 9 mph 91 % 0 in
19:02 34.9 °F 32.5 °F 30.2 in WNW 10 mph 20 mph 91 % 0 in
19:12 34.9 °F 32.5 °F 30.2 in WNW 9 mph 20 mph 91 % 0.01 in
19:17 34.9 °F 32.5 °F 30.2 in West 7 mph 18 mph 91 % 0.02 in
19:27 34.9 °F 32.2 °F 30.2 in West 4 mph 18 mph 90 % 0.02 in
19:32 34.9 °F 32.5 °F 30.2 in WNW 5 mph 12 mph 91 % 0.02 in
19:42 34.5 °F 32.2 °F 30.2 in West 4 mph 11 mph 91 % 0.02 in
19:47 34.3 °F 32 °F 30.2 in WSW 5 mph 11 mph 91 % 0.02 in
19:57 34.3 °F 32 °F 30.2 in West 9 mph 12 mph 91 % 0.02 in
20:07 34.3 °F 32 °F 30.2 in WSW 8 mph 12 mph 91 % 0.02 in
20:12 34.3 °F 32 °F 30.2 in WSW 5 mph 12 mph 91 % 0.01 in
20:22 34.3 °F 31.6 °F 30.2 in WNW 7 mph 11 mph 90 % 0 in
20:27 34.5 °F 31.6 °F 30.2 in WNW 6 mph 13 mph 89 % 0 in
20:32 34.5 °F 31.6 °F 30.2 in NW 4 mph 14 mph 89 % 0 in
20:37 34.5 °F 31.6 °F 30.2 in West 9 mph 14 mph 89 % 0 in
20:42 34.5 °F 31.6 °F 30.2 in WNW 2 mph 14 mph 89 % 0 in
20:47 34.3 °F 31.5 °F 30.2 in West 2 mph 12 mph 89 % 0 in
20:52 34.3 °F 31.6 °F 30.2 in WNW 3 mph 9 mph 90 % 0 in
20:57 34.3 °F 31.6 °F 30.2 in West 4 mph 9 mph 90 % 0 in
21:02 34.3 °F 31.6 °F 30.2 in West 5 mph 9 mph 90 % 0 in
21:12 34.3 °F 32 °F 30.2 in WNW 3 mph 15 mph 91 % 0 in
21:17 34.3 °F 32 °F 30.2 in WNW 7 mph 15 mph 91 % 0 in
21:22 34.3 °F 32 °F 30.2 in NNW 5 mph 15 mph 91 % 0 in
21:27 34.3 °F 32 °F 30.2 in West 10 mph 15 mph 91 % 0 in
21:37 34.3 °F 32 °F 30.2 in West 8 mph 15 mph 91 % 0 in
21:42 34.3 °F 32 °F 30.2 in WNW 9 mph 15 mph 91 % 0 in
21:47 34.3 °F 32 °F 30.2 in West 7 mph 13 mph 91 % 0 in
21:57 34.5 °F 32.2 °F 30.2 in WNW 6 mph 13 mph 91 % 0 in
22:02 34.3 °F 32 °F 30.2 in West 7 mph 12 mph 91 % 0 in
22:12 34.3 °F 31.6 °F 30.2 in WNW 9 mph 17 mph 90 % 0 in
22:17 34.2 °F 31.5 °F 30.2 in WNW 7 mph 17 mph 90 % 0 in
22:22 34.2 °F 31.5 °F 30.2 in WNW 7 mph 17 mph 90 % 0 in
22:27 34.2 °F 31.5 °F 30.2 in West 5 mph 14 mph 90 % 0 in
22:37 34.2 °F 31.5 °F 30.2 in WNW 4 mph 12 mph 90 % 0 in
22:42 34.2 °F 31.5 °F 30.2 in West 5 mph 13 mph 90 % 0 in
22:52 34 °F 31.3 °F 30.2 in NW 3 mph 10 mph 90 % 0 in
22:57 34 °F 31.3 °F 30.2 in WNW 10 mph 10 mph 90 % 0 in
23:02 34 °F 31.3 °F 30.2 in NW 5 mph 14 mph 90 % 0 in
23:12 34 °F 31.3 °F 30.2 in West 10 mph 14 mph 90 % 0 in
23:17 33.8 °F 31.1 °F 30.2 in West 5 mph 14 mph 90 % 0 in
23:32 33.4 °F 31.1 °F 30.2 in WNW 11 mph 11 mph 91 % 0 in
23:37 33.4 °F 31.1 °F 30.2 in WNW 2 mph 13 mph 91 % 0 in
23:42 33.4 °F 31.3 °F 30.2 in SW 3 mph 13 mph 92 % 0 in
23:47 33.4 °F 31.3 °F 30.2 in WNW 3 mph 12 mph 92 % 0 in
23:52 33.4 °F 31.3 °F 30.2 in West 11 mph 11 mph 92 % 0 in
23:57 33.6 °F 31.5 °F 30.2 in WNW 7 mph 12 mph 92 % 0 in
Meteo18
Compliments of Weather Underground - 4 mb

Script developed by  Jim McMurry - jmcmurry@mwt.net Adapted for the template by  Wim van der Kuil - Leuven-Template.eu

You find our weather info also at:

European Weather Network

Weather Underground

Equipment we use:

Weather-station
Davis Vue

Weather-program
Meteohub

Weather-server
Raspberry PI 2 B+

Provider
1 and 1

Davis Vue

Meteohub

Raspberry PI 2 B+

1 and 1